createdAt,value
2023-09-05T00:02:18.767Z,17.90
2023-09-05T00:04:46.184Z,17.80
2023-09-05T00:07:13.176Z,17.80
2023-09-05T00:09:39.891Z,17.80
2023-09-05T00:12:08.263Z,17.80
2023-09-05T00:14:37.540Z,17.80
2023-09-05T00:17:04.812Z,17.80
2023-09-05T00:19:31.453Z,17.70
2023-09-05T00:21:58.250Z,17.70
2023-09-05T00:24:36.372Z,17.70
2023-09-05T00:27:06.771Z,17.70
2023-09-05T00:29:33.502Z,17.64
2023-09-05T00:32:01.416Z,17.60
2023-09-05T00:34:38.406Z,17.60
2023-09-05T00:37:10.570Z,17.60
2023-09-05T00:39:41.282Z,17.56
2023-09-05T00:42:13.997Z,17.50
2023-09-05T00:44:42.661Z,17.50
2023-09-05T00:47:12.697Z,17.50
2023-09-05T00:49:42.884Z,17.48
2023-09-05T00:52:11.914Z,17.42
2023-09-05T00:54:38.850Z,17.40
2023-09-05T00:57:06.660Z,17.40
2023-09-05T00:59:33.441Z,17.40
2023-09-05T01:02:00.149Z,17.40
2023-09-05T01:04:27.359Z,17.36
2023-09-05T01:07:07.921Z,17.30
2023-09-05T01:09:55.272Z,17.30
2023-09-05T01:12:24.360Z,17.30
2023-09-05T01:14:51.187Z,17.30
2023-09-05T01:17:17.945Z,17.22
2023-09-05T01:19:46.018Z,17.20
2023-09-05T01:22:37.112Z,17.20
2023-09-05T01:25:04.866Z,17.14
2023-09-05T01:27:31.869Z,17.10
2023-09-05T01:29:59.557Z,17.10
2023-09-05T01:32:28.114Z,17.10
2023-09-05T01:34:55.410Z,17.06
2023-09-05T01:37:23.139Z,17.02
2023-09-05T01:39:49.895Z,17.00
2023-09-05T01:42:16.522Z,17.00
2023-09-05T01:44:43.343Z,17.00
2023-09-05T01:47:10.450Z,16.96
2023-09-05T01:49:37.413Z,16.90
2023-09-05T01:52:04.385Z,16.90
2023-09-05T01:54:31.025Z,16.90
2023-09-05T01:56:57.748Z,16.90
2023-09-05T01:59:24.539Z,16.90
2023-09-05T02:01:51.406Z,16.82
2023-09-05T02:04:18.146Z,16.80
2023-09-05T02:06:44.821Z,16.80
2023-09-05T02:09:11.617Z,16.80
2023-09-05T02:11:38.268Z,16.80
2023-09-05T02:14:05.175Z,16.70
2023-09-05T02:16:32.267Z,16.70
2023-09-05T02:18:59.131Z,16.70
2023-09-05T02:21:25.823Z,16.70
2023-09-05T02:23:52.516Z,16.70
2023-09-05T02:26:19.187Z,16.66
2023-09-05T02:28:46.175Z,16.60
2023-09-05T02:31:13.374Z,16.60
2023-09-05T02:33:40.170Z,16.60
2023-09-05T02:36:19.949Z,16.52
2023-09-05T02:38:47.288Z,16.50
2023-09-05T02:41:16.193Z,16.50
2023-09-05T02:43:44.131Z,16.50
2023-09-05T02:46:11.293Z,16.48
2023-09-05T02:48:43.234Z,16.46
2023-09-05T02:51:12.655Z,16.40
2023-09-05T02:53:39.778Z,16.42
2023-09-05T02:56:06.882Z,16.40
2023-09-05T02:58:35.281Z,16.40
2023-09-05T03:01:08.401Z,16.40
2023-09-05T03:03:35.345Z,16.40
2023-09-05T03:06:12.709Z,16.40
2023-09-05T03:08:43.002Z,16.40
2023-09-05T03:11:10.243Z,16.40
2023-09-05T03:13:37.160Z,16.40
2023-09-05T03:16:04.320Z,16.30
2023-09-05T03:18:31.392Z,16.30
2023-09-05T03:20:59.494Z,16.30
2023-09-05T03:23:26.540Z,16.28
2023-09-05T03:25:54.066Z,16.20
2023-09-05T03:28:21.525Z,16.20
2023-09-05T03:30:48.191Z,16.20
2023-09-05T03:33:15.267Z,16.20
2023-09-05T03:35:44.121Z,16.16
2023-09-05T03:38:10.927Z,16.10
2023-09-05T03:40:37.632Z,16.10
2023-09-05T03:43:04.577Z,16.10
2023-09-05T03:45:32.125Z,16.10
2023-09-05T03:48:01.951Z,16.00
2023-09-05T03:50:30.477Z,16.00
2023-09-05T03:52:58.319Z,16.00
2023-09-05T03:55:25.548Z,15.90
2023-09-05T03:57:52.645Z,15.90
2023-09-05T04:00:20.035Z,15.90
2023-09-05T04:02:49.263Z,15.80
2023-09-05T04:05:17.667Z,15.80
2023-09-05T04:07:44.358Z,15.80
2023-09-05T04:10:11.858Z,15.80
2023-09-05T04:12:38.674Z,15.80
2023-09-05T04:15:06.375Z,15.80
2023-09-05T04:17:34.293Z,15.78
2023-09-05T04:20:02.519Z,15.80
2023-09-05T04:22:30.391Z,15.80
2023-09-05T04:24:58.061Z,15.80
2023-09-05T04:27:25.292Z,15.70
2023-09-05T04:29:55.807Z,15.70
2023-09-05T04:32:32.286Z,15.70
2023-09-05T04:35:04.499Z,15.70
2023-09-05T04:37:31.239Z,15.70
2023-09-05T04:40:02.107Z,15.70
2023-09-05T04:42:29.051Z,15.60
2023-09-05T04:44:55.720Z,15.60
2023-09-05T04:47:25.101Z,15.60
2023-09-05T04:49:59.096Z,15.56
2023-09-05T04:52:29.544Z,15.52
2023-09-05T04:55:00.974Z,15.56
2023-09-05T04:57:28.972Z,15.52
2023-09-05T05:00:01.501Z,15.50
2023-09-05T05:02:29.359Z,15.50
2023-09-05T05:04:56.321Z,15.50
2023-09-05T05:07:23.199Z,15.50
2023-09-05T05:09:50.080Z,15.50
2023-09-05T05:12:17.454Z,15.56
2023-09-05T05:14:44.290Z,15.60
2023-09-05T05:17:14.484Z,15.60
2023-09-05T05:19:42.016Z,15.60
2023-09-05T05:22:08.931Z,15.60
2023-09-05T05:24:35.697Z,15.60
2023-09-05T05:27:02.372Z,15.62
2023-09-05T05:29:33.432Z,15.60
2023-09-05T05:32:02.402Z,15.60
2023-09-05T05:34:31.356Z,15.62
2023-09-05T05:36:58.527Z,15.66
2023-09-05T05:39:26.747Z,15.70
2023-09-05T05:41:54.013Z,15.70
2023-09-05T05:44:22.711Z,15.80
2023-09-05T05:46:49.539Z,15.80
2023-09-05T05:49:16.194Z,15.84
2023-09-05T05:51:42.945Z,15.90
2023-09-05T05:54:09.771Z,15.90
2023-09-05T05:56:36.566Z,15.96
2023-09-05T05:59:03.643Z,16.00
2023-09-05T06:01:31.451Z,16.00
2023-09-05T06:03:58.236Z,16.10
2023-09-05T06:06:25.021Z,16.10
2023-09-05T06:08:51.825Z,16.20
2023-09-05T06:11:18.560Z,16.20
2023-09-05T06:13:45.121Z,16.28
2023-09-05T06:16:11.897Z,16.30
2023-09-05T06:18:38.614Z,16.30
2023-09-05T06:21:05.312Z,16.60
2023-09-05T06:23:33.816Z,18.08
2023-09-05T06:26:01.015Z,19.68
2023-09-05T06:28:27.966Z,21.32
2023-09-05T06:31:00.258Z,22.64
2023-09-05T06:33:29.590Z,23.76
2023-09-05T06:35:56.416Z,24.60
2023-09-05T06:38:24.826Z,25.14
2023-09-05T06:40:51.884Z,24.34
2023-09-05T06:43:18.602Z,23.34
2023-09-05T06:45:45.331Z,22.42
2023-09-05T06:48:12.054Z,21.80
2023-09-05T06:50:38.859Z,21.20
2023-09-05T06:53:05.542Z,20.80
2023-09-05T06:55:35.886Z,20.50
2023-09-05T06:58:02.656Z,20.30
2023-09-05T07:00:29.322Z,20.16
2023-09-05T07:02:56.084Z,20.00
2023-09-05T07:05:23.040Z,19.90
2023-09-05T07:07:49.751Z,19.80
2023-09-05T07:10:16.653Z,19.60
2023-09-05T07:12:43.449Z,19.42
2023-09-05T07:15:10.505Z,19.40
2023-09-05T07:17:37.191Z,19.30
2023-09-05T07:20:04.470Z,19.30
2023-09-05T07:22:31.014Z,19.30
2023-09-05T07:24:57.645Z,19.30
2023-09-05T07:27:24.284Z,19.30
2023-09-05T07:29:51.326Z,19.30
2023-09-05T07:32:18.119Z,19.24
2023-09-05T07:34:44.825Z,19.22
2023-09-05T07:37:12.245Z,19.30
2023-09-05T07:39:39.821Z,19.30
2023-09-05T07:42:06.512Z,19.40
2023-09-05T07:44:33.166Z,19.36
2023-09-05T07:46:59.814Z,19.38
2023-09-05T07:49:27.549Z,19.40
2023-09-05T07:51:55.819Z,19.48
2023-09-05T07:54:27.073Z,19.50
2023-09-05T07:56:53.773Z,19.50
2023-09-05T07:59:20.747Z,19.60
2023-09-05T08:01:47.439Z,20.06
2023-09-05T08:04:14.115Z,21.42
2023-09-05T08:06:43.289Z,22.88
2023-09-05T08:09:10.455Z,24.04
2023-09-05T08:11:37.122Z,25.12
2023-09-05T08:14:03.783Z,26.26
2023-09-05T08:16:30.680Z,27.34
2023-09-05T08:18:57.373Z,28.32
2023-09-05T08:21:24.039Z,29.14
2023-09-05T08:23:51.484Z,29.86
2023-09-05T08:26:18.175Z,30.52
2023-09-05T08:28:47.120Z,30.70
2023-09-05T08:31:18.867Z,31.20
2023-09-05T08:33:46.288Z,31.98
2023-09-05T08:36:12.871Z,32.46
2023-09-05T08:38:39.536Z,32.72
2023-09-05T08:41:08.447Z,33.22
2023-09-05T08:43:36.322Z,33.70
2023-09-05T08:46:04.102Z,34.00
2023-09-05T08:51:06.904Z,34.40
2023-09-05T08:53:42.497Z,34.64
2023-09-05T08:56:09.660Z,35.00
2023-09-05T08:58:38.077Z,35.30
2023-09-05T09:01:04.789Z,35.56
2023-09-05T09:03:32.589Z,35.80
2023-09-05T09:05:59.363Z,35.80
2023-09-05T09:08:26.336Z,35.28
2023-09-05T09:11:10.320Z,35.30
2023-09-05T09:13:41.861Z,35.50
2023-09-05T09:16:08.562Z,35.58
2023-09-05T09:18:35.702Z,35.20
2023-09-05T09:21:06.512Z,35.40
2023-09-05T09:23:34.710Z,35.50
2023-09-05T09:26:03.736Z,35.50
2023-09-05T09:28:33.468Z,36.34
2023-09-05T09:31:12.242Z,37.36
2023-09-05T09:33:40.619Z,37.60
2023-09-05T09:36:12.905Z,37.34
2023-09-05T09:38:40.886Z,37.20
2023-09-05T09:41:08.642Z,37.20
2023-09-05T09:43:39.175Z,37.74
2023-09-05T09:46:09.690Z,37.52
2023-09-05T09:48:37.788Z,37.64
2023-09-05T09:51:08.107Z,38.30
2023-09-05T09:53:41.104Z,38.80
2023-09-05T09:56:14.650Z,39.14
2023-09-05T09:58:45.845Z,38.96
2023-09-05T10:01:14.989Z,38.46
2023-09-05T10:03:45.500Z,38.22
2023-09-05T10:06:12.717Z,38.04
2023-09-05T10:08:46.400Z,37.24
2023-09-05T10:11:16.102Z,36.46
2023-09-05T10:13:44.193Z,35.66
2023-09-05T10:16:13.864Z,34.90
2023-09-05T10:18:45.263Z,34.08
2023-09-05T10:21:13.533Z,33.34
2023-09-05T10:23:40.975Z,32.72
2023-09-05T10:26:10.376Z,32.28
2023-09-05T10:28:38.254Z,31.70
2023-09-05T10:31:17.167Z,31.24
2023-09-05T10:33:46.768Z,30.70
2023-09-05T10:36:41.106Z,30.40
2023-09-05T10:39:26.647Z,29.86
2023-09-05T10:41:54.537Z,29.34
2023-09-05T10:44:25.190Z,29.02
2023-09-05T10:46:55.757Z,28.66
2023-09-05T10:49:23.887Z,28.60
2023-09-05T10:52:20.682Z,28.42
2023-09-05T10:54:47.729Z,28.20
2023-09-05T10:57:40.398Z,28.10
2023-09-05T11:00:31.160Z,28.08
2023-09-05T11:03:12.948Z,28.00
2023-09-05T11:05:46.897Z,27.70
2023-09-05T11:08:24.121Z,27.60
2023-09-05T11:10:56.460Z,27.50
2023-09-05T11:13:23.313Z,27.48
2023-09-05T11:15:59.715Z,27.36
2023-09-05T11:18:27.055Z,27.36
2023-09-05T11:20:54.906Z,27.30
2023-09-05T11:23:26.903Z,27.32
2023-09-05T11:25:57.302Z,27.40
2023-09-05T11:28:25.752Z,27.30
2023-09-05T11:30:58.612Z,27.20
2023-09-05T11:33:28.290Z,27.00
2023-09-05T11:35:55.244Z,26.90
2023-09-05T11:38:24.360Z,26.90
2023-09-05T11:40:57.059Z,26.70
2023-09-05T11:43:25.326Z,26.60
2023-09-05T11:45:58.579Z,26.60
2023-09-05T11:48:32.938Z,26.50
2023-09-05T11:51:00.084Z,26.50
2023-09-05T11:53:27.522Z,26.40
2023-09-05T11:55:54.289Z,26.50
2023-09-05T11:58:20.995Z,26.50
2023-09-05T12:00:52.401Z,26.50
2023-09-05T12:03:19.418Z,26.44
2023-09-05T12:05:53.367Z,26.50
2023-09-05T12:13:41.288Z,26.40
2023-09-05T12:16:11.214Z,26.50
2023-09-05T12:18:44.155Z,26.50
2023-09-05T12:21:13.107Z,26.40
2023-09-05T12:23:39.915Z,26.40
2023-09-05T12:26:07.495Z,26.40
2023-09-05T12:28:35.835Z,26.30
2023-09-05T12:31:12.091Z,26.30
2023-09-05T12:33:41.525Z,26.40
2023-09-05T12:36:08.204Z,26.40
2023-09-05T12:38:34.984Z,26.40
2023-09-05T12:41:03.083Z,26.50
2023-09-05T12:43:29.727Z,26.44
2023-09-05T12:45:56.377Z,26.40
2023-09-05T12:48:23.189Z,26.50
2023-09-05T12:50:51.179Z,26.50
2023-09-05T12:53:20.560Z,26.50
2023-09-05T12:55:49.250Z,26.60
2023-09-05T12:58:15.935Z,26.70
2023-09-05T13:00:44.518Z,26.70
2023-09-05T13:03:13.021Z,26.70
2023-09-05T13:05:41.727Z,26.60
2023-09-05T13:08:11.344Z,26.60
2023-09-05T13:10:39.203Z,26.60
2023-09-05T13:13:08.221Z,26.60
2023-09-05T13:15:35.579Z,26.68
2023-09-05T13:18:03.104Z,26.70
2023-09-05T13:20:32.500Z,26.80
2023-09-05T13:23:00.231Z,26.90
2023-09-05T13:25:30.241Z,26.90
2023-09-05T13:27:57.152Z,26.90
2023-09-05T13:30:23.883Z,27.00
2023-09-05T13:32:52.961Z,26.90
2023-09-05T13:35:20.036Z,26.82
2023-09-05T13:37:47.019Z,26.80
2023-09-05T13:40:14.520Z,26.90
2023-09-05T13:42:41.353Z,26.90
2023-09-05T13:45:09.163Z,26.80
2023-09-05T13:47:39.078Z,26.80
2023-09-05T13:50:09.977Z,26.80
2023-09-05T13:52:36.686Z,26.80
2023-09-05T13:55:03.668Z,26.90
2023-09-05T13:57:30.512Z,26.90
2023-09-05T13:59:57.250Z,26.90
2023-09-05T14:02:26.310Z,26.90
2023-09-05T14:04:53.685Z,26.80
2023-09-05T14:07:20.932Z,26.82
2023-09-05T14:09:47.629Z,26.90
2023-09-05T14:12:19.460Z,26.86
2023-09-05T14:14:46.483Z,26.90
2023-09-05T14:17:15.495Z,26.90
2023-09-05T14:19:42.543Z,26.90
2023-09-05T14:22:10.014Z,26.90
2023-09-05T14:24:36.901Z,26.86
2023-09-05T14:27:04.023Z,26.90
2023-09-05T14:29:30.778Z,26.84
2023-09-05T14:31:57.833Z,26.80
2023-09-05T14:34:24.560Z,26.72
2023-09-05T14:36:53.320Z,26.70
2023-09-05T14:39:19.997Z,26.70
2023-09-05T14:41:49.683Z,26.68
2023-09-05T14:44:18.128Z,26.60
2023-09-05T14:46:45.094Z,26.60
2023-09-05T14:49:13.524Z,26.60
2023-09-05T14:51:42.569Z,26.60
2023-09-05T14:54:09.485Z,26.80
2023-09-05T14:56:37.941Z,26.84
2023-09-05T14:59:04.790Z,26.70
2023-09-05T15:01:31.552Z,26.70
2023-09-05T15:03:58.400Z,26.60
2023-09-05T15:06:25.210Z,26.60
2023-09-05T15:08:51.966Z,26.50
2023-09-05T15:11:18.567Z,26.40
2023-09-05T15:13:46.241Z,26.30
2023-09-05T15:16:13.100Z,26.20
2023-09-05T15:18:40.032Z,26.10
2023-09-05T15:21:06.746Z,26.00
2023-09-05T15:23:35.212Z,26.00
2023-09-05T15:26:01.912Z,26.30
2023-09-05T15:28:30.137Z,26.40
2023-09-05T15:30:56.798Z,26.30
2023-09-05T15:33:24.406Z,26.12
2023-09-05T15:36:03.215Z,26.10
2023-09-05T15:38:30.116Z,25.90
2023-09-05T15:40:57.201Z,25.78
2023-09-05T15:43:23.974Z,25.60
2023-09-05T15:45:53.093Z,25.50
2023-09-05T15:48:20.534Z,25.30
2023-09-05T15:50:48.914Z,25.20
2023-09-05T15:53:19.348Z,25.10
2023-09-05T15:55:46.077Z,25.00
2023-09-05T15:58:12.937Z,25.00
2023-09-05T16:00:39.943Z,25.00
2023-09-05T16:03:06.861Z,24.90
2023-09-05T16:05:33.889Z,24.90
2023-09-05T16:08:00.619Z,24.80
2023-09-05T16:10:27.654Z,24.70
2023-09-05T16:12:54.380Z,24.70
2023-09-05T16:15:21.426Z,24.60
2023-09-05T16:17:48.161Z,24.54
2023-09-05T16:20:15.457Z,24.46
2023-09-05T16:22:42.316Z,24.40
2023-09-05T16:25:11.654Z,24.36
2023-09-05T16:27:38.614Z,24.30
2023-09-05T16:30:09.317Z,24.30
2023-09-05T16:32:37.274Z,24.20
2023-09-05T16:35:05.154Z,24.12
2023-09-05T16:37:32.103Z,24.10
2023-09-05T16:40:00.291Z,24.00
2023-09-05T16:42:27.499Z,23.90
2023-09-05T16:44:57.233Z,23.80
2023-09-05T16:47:23.940Z,23.80
2023-09-05T16:49:50.986Z,23.80
2023-09-05T16:52:17.692Z,23.70
2023-09-05T16:54:45.483Z,23.66
2023-09-05T16:57:14.620Z,23.52
2023-09-05T16:59:42.189Z,23.50
2023-09-05T17:02:09.131Z,23.40
2023-09-05T17:04:35.830Z,23.38
2023-09-05T17:07:04.336Z,23.30
2023-09-05T17:09:31.076Z,23.30
2023-09-05T17:11:57.806Z,23.22
2023-09-05T17:14:24.509Z,23.20
2023-09-05T17:16:51.313Z,23.10
2023-09-05T17:19:18.035Z,23.10
2023-09-05T17:21:45.247Z,23.00
2023-09-05T17:24:11.955Z,23.00
2023-09-05T17:26:38.658Z,23.00
2023-09-05T17:29:05.537Z,22.94
2023-09-05T17:31:32.350Z,22.90
2023-09-05T17:33:59.922Z,22.80
2023-09-05T17:36:27.097Z,22.70
2023-09-05T17:38:53.708Z,22.70
2023-09-05T17:41:20.405Z,22.60
2023-09-05T17:43:47.490Z,22.60
2023-09-05T17:46:14.230Z,22.50
2023-09-05T17:48:41.027Z,22.50
2023-09-05T17:51:10.638Z,22.40
2023-09-05T17:53:37.493Z,22.38
2023-09-05T17:56:06.202Z,22.30
2023-09-05T17:58:32.868Z,22.30
2023-09-05T18:00:59.722Z,22.20
2023-09-05T18:03:26.594Z,22.20
2023-09-05T18:05:53.746Z,22.18
2023-09-05T18:08:20.438Z,22.10
2023-09-05T18:10:47.379Z,22.10
2023-09-05T18:13:14.296Z,22.00
2023-09-05T18:15:42.711Z,22.00
2023-09-05T18:18:10.479Z,21.90
2023-09-05T18:20:43.180Z,21.90
2023-09-05T18:23:10.003Z,21.80
2023-09-05T18:25:36.974Z,21.80
2023-09-05T18:28:04.037Z,21.70
2023-09-05T18:30:30.953Z,21.70
2023-09-05T18:32:57.954Z,21.70
2023-09-05T18:35:24.612Z,21.60
2023-09-05T18:37:51.258Z,21.58
2023-09-05T18:40:18.107Z,21.50
2023-09-05T18:42:44.869Z,21.50
2023-09-05T18:45:11.718Z,21.46
2023-09-05T18:47:38.707Z,21.40
2023-09-05T18:50:06.698Z,21.40
2023-09-05T18:52:33.427Z,21.30
2023-09-05T18:55:00.300Z,21.30
2023-09-05T18:57:28.356Z,21.30
2023-09-05T18:59:55.697Z,21.20
2023-09-05T19:02:29.689Z,21.20
2023-09-05T19:04:57.110Z,21.14
2023-09-05T19:07:24.524Z,21.10
2023-09-05T19:09:51.743Z,21.10
2023-09-05T19:12:19.837Z,21.00
2023-09-05T19:14:48.071Z,21.00
2023-09-05T19:17:15.676Z,21.00
2023-09-05T19:19:42.491Z,21.00
2023-09-05T19:22:09.182Z,20.90
2023-09-05T19:24:37.674Z,20.90
2023-09-05T19:27:05.397Z,20.90
2023-09-05T19:29:32.562Z,20.90
2023-09-05T19:31:59.339Z,20.80
2023-09-05T19:34:25.952Z,20.80
2023-09-05T19:36:53.421Z,20.70
2023-09-05T19:39:20.414Z,20.70
2023-09-05T19:41:47.272Z,20.64
2023-09-05T19:44:14.033Z,20.60
2023-09-05T19:46:44.578Z,20.60
2023-09-05T19:49:11.548Z,20.60
2023-09-05T19:51:38.438Z,20.60
2023-09-05T19:54:06.130Z,20.50
2023-09-05T19:56:32.732Z,20.50
2023-09-05T19:58:59.473Z,20.50
2023-09-05T20:01:26.396Z,20.48
2023-09-05T20:03:55.773Z,20.40
2023-09-05T20:06:22.760Z,20.40
2023-09-05T20:08:49.414Z,20.30
2023-09-05T20:11:16.188Z,20.30
2023-09-05T20:13:42.869Z,20.30
2023-09-05T20:16:12.144Z,20.20
2023-09-05T20:18:38.822Z,20.20
2023-09-05T20:21:05.561Z,20.20
2023-09-05T20:23:32.393Z,20.20
2023-09-05T20:25:59.152Z,20.10
2023-09-05T20:28:31.785Z,20.10
2023-09-05T20:31:00.312Z,20.10
2023-09-05T20:33:29.221Z,20.06
2023-09-05T20:36:04.697Z,20.00
2023-09-05T20:38:31.456Z,20.00
2023-09-05T20:40:58.207Z,19.90
2023-09-05T20:43:25.298Z,19.90
2023-09-05T20:45:52.290Z,19.80
2023-09-05T20:48:19.461Z,19.80
2023-09-05T20:50:46.340Z,19.80
2023-09-05T20:53:12.879Z,19.70
2023-09-05T20:55:39.583Z,19.70
2023-09-05T20:58:06.385Z,19.70
2023-09-05T21:00:33.344Z,19.60
2023-09-05T21:03:00.551Z,19.60
2023-09-05T21:05:31.060Z,19.60
2023-09-05T21:07:57.744Z,19.58
2023-09-05T21:10:26.238Z,19.50
2023-09-05T21:12:57.016Z,19.50
2023-09-05T21:15:25.081Z,19.40
2023-09-05T21:17:51.949Z,19.40
2023-09-05T21:20:18.964Z,19.40
2023-09-05T21:22:45.854Z,19.30
2023-09-05T21:25:14.610Z,19.30
2023-09-05T21:27:42.233Z,19.24
2023-09-05T21:30:10.467Z,19.20
2023-09-05T21:32:38.733Z,19.16
2023-09-05T21:35:06.346Z,19.10
2023-09-05T21:37:33.185Z,19.04
2023-09-05T21:40:00.675Z,19.00
2023-09-05T21:42:28.093Z,19.00
2023-09-05T21:44:55.155Z,19.00
2023-09-05T21:47:22.030Z,18.92
2023-09-05T21:50:18.775Z,18.90
2023-09-05T21:52:45.554Z,18.90
2023-09-05T21:55:12.243Z,18.80
2023-09-05T21:57:39.015Z,18.80
2023-09-05T22:00:07.438Z,18.80
2023-09-05T22:02:34.110Z,18.80
2023-09-05T22:05:01.496Z,18.74
2023-09-05T22:07:28.188Z,18.70
2023-09-05T22:09:54.856Z,18.70
2023-09-05T22:12:22.322Z,18.66
2023-09-05T22:14:49.028Z,18.60
2023-09-05T22:17:15.718Z,18.60
2023-09-05T22:19:43.630Z,18.50
2023-09-05T22:22:10.263Z,18.50
2023-09-05T22:24:38.174Z,18.50
2023-09-05T22:27:05.382Z,18.42
2023-09-05T22:29:36.278Z,18.40
2023-09-05T22:32:03.703Z,18.40
2023-09-05T22:34:30.597Z,18.36
2023-09-05T22:36:57.419Z,18.30
2023-09-05T22:39:24.902Z,18.30
2023-09-05T22:41:51.582Z,18.30
2023-09-05T22:44:18.264Z,18.30
2023-09-05T22:46:44.896Z,18.20
2023-09-05T22:49:11.587Z,18.20
2023-09-05T22:51:38.480Z,18.20
2023-09-05T22:54:05.767Z,18.20
2023-09-05T22:56:32.473Z,18.12
2023-09-05T22:58:59.159Z,18.10
2023-09-05T23:01:25.952Z,18.10
2023-09-05T23:03:52.824Z,18.10
2023-09-05T23:06:19.854Z,18.00
2023-09-05T23:08:46.437Z,18.00
2023-09-05T23:11:13.177Z,18.00
2023-09-05T23:13:39.878Z,17.94
2023-09-05T23:16:07.313Z,17.90
2023-09-05T23:18:36.344Z,17.90
2023-09-05T23:21:06.599Z,17.90
2023-09-05T23:23:36.320Z,17.90
2023-09-05T23:26:04.266Z,17.80
2023-09-05T23:28:32.208Z,17.80
2023-09-05T23:31:01.872Z,17.74
2023-09-05T23:33:31.713Z,17.70
2023-09-05T23:35:58.796Z,17.70
2023-09-05T23:38:25.633Z,17.70
2023-09-05T23:40:52.554Z,17.70
2023-09-05T23:43:19.426Z,17.70
2023-09-05T23:45:57.829Z,17.60
2023-09-05T23:48:27.645Z,17.50
2023-09-05T23:50:55.000Z,17.50
2023-09-05T23:53:21.605Z,17.40
2023-09-05T23:55:50.662Z,17.40
2023-09-05T23:58:17.380Z,17.32
